Time;durP1;ratioP1;P1;durP2;ratioP2;P2;SDS_P1;SDS_P2;PMS_P1;PMS_P2;Temp;Humidity;BMP_temperature;BMP_pressure;BME280_temperature;BME280_humidity;BME280_pressure;Samples;Min_cycle;Max_cycle;Signal;HPM_P1;HPM_P2
2023/08/15 00:01:27;;;;;;;3.42;2.72;;;23.60;99.90;;;;;;5035100;28;20205;-65
2023/08/15 00:03:53;;;;;;;3.35;2.70;;;23.50;99.90;;;;;;5036575;28;20178;-65
2023/08/15 00:06:20;;;;;;;2.90;2.63;;;23.50;99.90;;;;;;5037449;28;20166;-65
2023/08/15 00:08:48;;;;;;;5.03;2.80;;;23.40;99.90;;;;;;5053191;28;20182;-65
2023/08/15 00:11:13;;;;;;;3.53;2.40;;;23.40;99.90;;;;;;5028779;28;20179;-65
2023/08/15 00:13:39;;;;;;;2.90;2.53;;;23.40;99.90;;;;;;5036687;28;20442;-66
2023/08/15 00:16:07;;;;;;;3.22;2.92;;;23.40;99.90;;;;;;5051587;28;20199;-65
2023/08/15 00:18:37;;;;;;;5.43;2.72;;;23.30;99.90;;;;;;5037092;28;20236;-65
2023/08/15 00:21:03;;;;;;;2.95;2.35;;;23.30;99.90;;;;;;5036611;28;20178;-64
2023/08/15 00:23:29;;;;;;;3.42;2.45;;;23.30;99.90;;;;;;5037321;28;20180;-64
2023/08/15 00:25:57;;;;;;;2.90;2.60;;;23.30;99.90;;;;;;5053804;28;20377;-64
2023/08/15 00:28:22;;;;;;;2.72;2.17;;;23.30;99.90;;;;;;5037215;28;20181;-65
2023/08/15 00:30:49;;;;;;;2.92;2.40;;;23.20;99.90;;;;;;5036451;28;20181;-65
2023/08/15 00:33:15;;;;;;;2.30;2.05;;;23.20;99.90;;;;;;5041729;28;20209;-64
2023/08/15 00:35:43;;;;;;;3.38;2.30;;;23.10;99.90;;;;;;5053181;28;20188;-65
2023/08/15 00:38:08;;;;;;;2.42;2.22;;;23.10;99.90;;;;;;5033528;28;20187;-65
2023/08/15 00:40:37;;;;;;;2.92;2.30;;;23.10;99.90;;;;;;5042741;28;20277;-64
2023/08/15 00:43:03;;;;;;;3.75;2.35;;;23.10;99.90;;;;;;5053707;28;20198;-65
2023/08/15 00:45:34;;;;;;;3.88;2.25;;;23.10;99.90;;;;;;5036135;28;20181;-65
2023/08/15 00:48:02;;;;;;;2.35;2.13;;;23.10;99.90;;;;;;5046164;28;20209;-65
2023/08/15 00:50:28;;;;;;;2.50;2.30;;;23.10;99.90;;;;;;5036170;28;20216;-64
2023/08/15 00:52:54;;;;;;;2.75;2.22;;;23.10;99.90;;;;;;5036692;28;20290;-65
2023/08/15 00:55:23;;;;;;;3.28;2.20;;;23.00;99.90;;;;;;5036443;28;20186;-65
2023/08/15 00:57:49;;;;;;;3.33;1.95;;;23.00;99.90;;;;;;5036748;28;20186;-65
2023/08/15 01:00:15;;;;;;;2.70;2.28;;;23.00;99.90;;;;;;5035884;28;20263;-65
2023/08/15 01:02:42;;;;;;;2.70;2.30;;;23.00;99.90;;;;;;5035686;28;20252;-65
2023/08/15 01:05:08;;;;;;;3.45;2.30;;;22.90;99.90;;;;;;5035594;28;20181;-65
2023/08/15 01:07:34;;;;;;;3.58;2.40;;;22.90;99.90;;;;;;5049534;28;20167;-65
2023/08/15 01:09:59;;;;;;;2.50;2.30;;;22.90;99.90;;;;;;5036454;28;20185;-65
2023/08/15 01:12:35;;;;;;;2.40;2.13;;;22.90;99.90;;;;;;5035734;28;20269;-65
2023/08/15 01:15:14;;;;;;;2.47;2.10;;;22.80;99.90;;;;;;5035799;28;20189;-65
2023/08/15 01:18:10;;;;;;;2.35;2.10;;;22.80;99.90;;;;;;5032626;28;20202;-65
2023/08/15 01:20:37;;;;;;;2.75;2.38;;;22.80;99.90;;;;;;5027572;28;20197;-65
2023/08/15 01:23:07;;;;;;;2.70;2.40;;;22.70;99.90;;;;;;5027677;28;20198;-65
2023/08/15 01:25:40;;;;;;;3.03;2.60;;;22.70;99.90;;;;;;5038448;28;20170;-65
2023/08/15 01:28:12;;;;;;;3.17;2.10;;;22.70;99.90;;;;;;5052725;28;20261;-64
2023/08/15 01:30:53;;;;;;;2.58;2.10;;;22.70;99.90;;;;;;5052355;28;20181;-65
2023/08/15 01:33:28;;;;;;;2.40;2.03;;;22.60;99.90;;;;;;5034784;28;20170;-65
2023/08/15 01:36:16;;;;;;;2.40;2.20;;;22.60;99.90;;;;;;5035321;28;20185;-65
2023/08/15 01:39:00;;;;;;;2.80;2.13;;;22.60;99.90;;;;;;5034950;28;20196;-65
2023/08/15 01:41:28;;;;;;;2.20;2.00;;;22.60;99.90;;;;;;5017454;28;20210;-66
2023/08/15 01:43:57;;;;;;;2.30;2.10;;;22.70;99.90;;;;;;5023844;28;20253;-64
2023/08/15 01:46:22;;;;;;;2.78;2.10;;;22.70;99.90;;;;;;5035596;28;20188;-64
2023/08/15 01:48:48;;;;;;;2.53;2.10;;;22.70;99.90;;;;;;5051574;28;20182;-64
2023/08/15 01:51:16;;;;;;;2.83;2.20;;;22.70;99.90;;;;;;5046914;28;20184;-63
2023/08/15 01:53:44;;;;;;;8.15;5.90;;;22.80;99.90;;;;;;5033881;28;20212;-64
2023/08/15 01:56:10;;;;;;;5.47;4.47;;;22.80;99.90;;;;;;5051953;28;20202;-65
2023/08/15 01:58:40;;;;;;;4.53;3.53;;;22.90;99.90;;;;;;5034076;28;20186;-64
2023/08/15 02:01:06;;;;;;;3.03;2.72;;;22.90;99.90;;;;;;5031764;28;20222;-64
2023/08/15 02:03:33;;;;;;;3.22;2.60;;;22.90;99.90;;;;;;5035030;28;20279;-64
2023/08/15 02:05:59;;;;;;;4.05;2.80;;;23.00;99.90;;;;;;5032020;28;20170;-64
2023/08/15 02:08:27;;;;;;;4.07;2.55;;;23.00;99.90;;;;;;5027859;28;20174;-64
2023/08/15 02:10:57;;;;;;;3.00;2.38;;;23.00;99.90;;;;;;5050440;28;20205;-64
2023/08/15 02:13:30;;;;;;;2.92;2.35;;;23.00;99.90;;;;;;5034473;28;20181;-64
2023/08/15 02:15:58;;;;;;;2.50;2.30;;;23.10;99.90;;;;;;5035034;28;20186;-65
2023/08/15 02:18:30;;;;;;;2.53;2.00;;;23.10;99.90;;;;;;5031507;28;20198;-64
2023/08/15 02:20:56;;;;;;;2.83;2.10;;;23.10;99.90;;;;;;5040110;28;20193;-64
2023/08/15 02:23:22;;;;;;;3.05;2.10;;;23.20;99.90;;;;;;5021564;28;20470;-64
2023/08/15 02:25:50;;;;;;;2.40;2.10;;;23.20;99.90;;;;;;5033495;28;20284;-64
2023/08/15 02:28:15;;;;;;;2.40;2.00;;;23.20;99.90;;;;;;5047609;28;20166;-65
2023/08/15 02:30:44;;;;;;;2.63;2.15;;;23.30;99.90;;;;;;5034523;28;20182;-64
2023/08/15 02:33:09;;;;;;;2.20;2.00;;;23.30;99.90;;;;;;5034269;28;20209;-64
2023/08/15 02:35:41;;;;;;;2.47;2.28;;;23.30;99.90;;;;;;5031937;28;20460;-64
2023/08/15 02:38:07;;;;;;;2.85;2.10;;;23.30;99.90;;;;;;5034229;28;20264;-64
2023/08/15 02:40:32;;;;;;;3.25;2.33;;;23.40;99.90;;;;;;5050691;28;20269;-64
2023/08/15 02:43:00;;;;;;;2.85;2.25;;;23.40;99.90;;;;;;5033545;28;20205;-64
2023/08/15 02:45:26;;;;;;;2.85;1.98;;;23.40;99.90;;;;;;5050961;28;20173;-65
2023/08/15 02:47:54;;;;;;;2.80;2.13;;;23.40;99.90;;;;;;5034531;28;20212;-65
2023/08/15 02:50:19;;;;;;;4.30;2.33;;;23.50;99.90;;;;;;5046426;28;20191;-65
2023/08/15 02:52:45;;;;;;;2.67;2.30;;;23.40;99.90;;;;;;5035007;28;20181;-65
2023/08/15 02:55:10;;;;;;;2.63;2.33;;;23.50;99.90;;;;;;5048449;28;20197;-65
2023/08/15 02:57:37;;;;;;;5.13;2.60;;;23.40;99.90;;;;;;5033740;28;20182;-64
2023/08/15 03:00:03;;;;;;;3.38;2.05;;;23.40;99.90;;;;;;5034519;28;20174;-65
2023/08/15 03:02:31;;;;;;;4.20;2.38;;;23.40;99.90;;;;;;5051491;28;20361;-67
2023/08/15 03:04:56;;;;;;;2.83;2.20;;;23.40;99.90;;;;;;5050734;28;20200;-65
2023/08/15 03:07:22;;;;;;;3.63;2.00;;;23.30;99.90;;;;;;5034166;28;20197;-66
2023/08/15 03:09:47;;;;;;;4.85;2.33;;;23.30;99.90;;;;;;5034158;28;20170;-65
2023/08/15 03:12:15;;;;;;;2.60;2.40;;;23.20;99.90;;;;;;5030582;28;20201;-66
2023/08/15 03:14:41;;;;;;;5.43;2.95;;;23.10;99.90;;;;;;5019051;28;20230;-66
2023/08/15 03:17:09;;;;;;;8.07;3.55;;;23.00;99.90;;;;;;5047918;28;20178;-67
2023/08/15 03:19:37;;;;;;;3.15;2.30;;;22.90;99.90;;;;;;5033639;28;20259;-69
2023/08/15 03:22:06;;;;;;;3.33;2.03;;;22.70;99.90;;;;;;5032344;28;20206;-68
2023/08/15 03:24:34;;;;;;;2.30;1.73;;;22.50;99.90;;;;;;5031158;28;20229;-66
2023/08/15 03:27:02;;;;;;;1.50;1.30;;;22.20;99.90;;;;;;5046462;28;20273;-66
2023/08/15 03:29:27;;;;;;;3.00;1.45;;;22.00;99.90;;;;;;5043132;28;20290;-67
2023/08/15 03:31:57;;;;;;;1.58;1.10;;;21.80;99.90;;;;;;5033566;28;20276;-66
2023/08/15 03:34:26;;;;;;;1.40;1.05;;;21.60;99.90;;;;;;5033795;28;20260;-67
2023/08/15 03:36:54;;;;;;;1.00;0.90;;;21.40;99.90;;;;;;5033314;28;20201;-67
2023/08/15 03:39:19;;;;;;;1.33;0.90;;;21.30;99.90;;;;;;5030141;28;20182;-66
2023/08/15 03:41:47;;;;;;;1.25;0.82;;;21.20;99.90;;;;;;5033392;28;20205;-67
2023/08/15 03:44:13;;;;;;;1.30;0.80;;;21.20;99.90;;;;;;5032600;28;20182;-67
2023/08/15 03:46:41;;;;;;;0.65;0.63;;;21.10;99.90;;;;;;5020565;28;20288;-66
2023/08/15 03:49:09;;;;;;;0.90;0.70;;;21.00;99.90;;;;;;5029656;28;20201;-67
2023/08/15 03:51:35;;;;;;;0.90;0.80;;;21.00;99.90;;;;;;5049462;28;20222;-67
2023/08/15 03:54:00;;;;;;;0.85;0.70;;;20.90;99.90;;;;;;5029284;28;20243;-67
2023/08/15 03:56:26;;;;;;;0.70;0.70;;;20.90;99.90;;;;;;5046727;28;20181;-67
2023/08/15 03:58:54;;;;;;;0.77;0.52;;;20.80;99.90;;;;;;5055250;28;20174;-68
2023/08/15 04:01:21;;;;;;;1.00;0.60;;;20.80;99.90;;;;;;5035817;28;20178;-68
2023/08/15 04:03:52;;;;;;;0.75;0.60;;;20.70;99.90;;;;;;5030787;28;20204;-67
2023/08/15 04:06:18;;;;;;;0.60;0.60;;;20.70;99.90;;;;;;5034425;28;20277;-68
2023/08/15 04:08:45;;;;;;;0.93;0.60;;;20.60;99.90;;;;;;5014255;28;20260;-68
2023/08/15 04:11:11;;;;;;;0.70;0.50;;;20.60;99.90;;;;;;5032065;28;20225;-68
2023/08/15 04:13:36;;;;;;;0.70;0.57;;;20.60;99.90;;;;;;5033223;28;20224;-67
2023/08/15 04:16:09;;;;;;;1.05;0.60;;;20.60;99.90;;;;;;5032496;28;20197;-68
2023/08/15 04:18:35;;;;;;;0.50;0.50;;;20.50;99.90;;;;;;5024733;28;20195;-68
2023/08/15 04:21:01;;;;;;;0.75;0.55;;;20.50;99.90;;;;;;5030565;28;20193;-67
2023/08/15 04:23:26;;;;;;;0.50;0.50;;;20.50;99.90;;;;;;5033733;28;20408;-67
2023/08/15 04:25:52;;;;;;;0.70;0.60;;;20.50;99.90;;;;;;5048290;28;20201;-68
2023/08/15 04:28:20;;;;;;;0.93;0.70;;;20.50;99.90;;;;;;5033303;28;20225;-69
2023/08/15 04:30:45;;;;;;;0.80;0.60;;;20.50;99.90;;;;;;5032350;28;20183;-67
2023/08/15 04:33:14;;;;;;;0.95;0.65;;;20.50;99.90;;;;;;5032526;28;20232;-68
2023/08/15 04:35:42;;;;;;;0.82;0.70;;;20.60;99.90;;;;;;5030684;28;20182;-68
2023/08/15 04:38:08;;;;;;;0.70;0.60;;;20.60;99.90;;;;;;5032582;28;20184;-67
2023/08/15 04:40:39;;;;;;;0.60;0.50;;;20.50;99.90;;;;;;5038601;28;20193;-68
2023/08/15 04:43:07;;;;;;;0.95;0.60;;;20.60;99.90;;;;;;5036830;28;20194;-68
2023/08/15 04:45:40;;;;;;;0.70;0.60;;;20.50;99.90;;;;;;5036050;28;20194;-67
2023/08/15 04:48:06;;;;;;;0.80;0.50;;;20.50;99.90;;;;;;5049223;28;20200;-66
2023/08/15 04:50:37;;;;;;;0.80;0.65;;;20.60;99.90;;;;;;5036426;28;20186;-66
2023/08/15 04:53:06;;;;;;;0.70;0.60;;;20.60;99.90;;;;;;5033806;28;20217;-67
2023/08/15 04:55:31;;;;;;;1.17;0.85;;;20.60;99.90;;;;;;5036571;28;20228;-68
2023/08/15 04:57:57;;;;;;;0.80;0.70;;;20.60;99.90;;;;;;5035888;28;20178;-68
2023/08/15 05:00:22;;;;;;;0.68;0.60;;;20.60;99.90;;;;;;5036074;28;20263;-67
2023/08/15 05:02:50;;;;;;;0.85;0.70;;;20.60;99.90;;;;;;5036607;28;20194;-66
2023/08/15 05:05:21;;;;;;;1.85;0.80;;;20.50;99.90;;;;;;5036784;28;20174;-67
2023/08/15 05:07:49;;;;;;;1.00;0.80;;;20.60;99.90;;;;;;5035377;28;20174;-67
2023/08/15 05:10:14;;;;;;;0.95;0.77;;;20.60;99.90;;;;;;5035280;28;20216;-67
2023/08/15 05:12:40;;;;;;;1.30;0.80;;;20.60;99.90;;;;;;5033700;28;20241;-67
2023/08/15 05:15:07;;;;;;;0.88;0.63;;;20.60;99.90;;;;;;5036383;28;20182;-66
2023/08/15 05:17:33;;;;;;;1.83;0.70;;;20.60;99.90;;;;;;5035609;28;20166;-66
2023/08/15 05:20:03;;;;;;;0.68;0.50;;;20.60;99.90;;;;;;5035899;28;20375;-66
2023/08/15 05:22:31;;;;;;;0.88;0.70;;;20.60;99.90;;;;;;5036170;28;20353;-67
2023/08/15 05:24:59;;;;;;;0.68;0.60;;;20.70;99.90;;;;;;5036114;28;20205;-67
2023/08/15 05:27:25;;;;;;;0.80;0.80;;;20.70;99.90;;;;;;5052293;28;20171;-66
2023/08/15 05:29:50;;;;;;;0.70;0.70;;;20.70;99.90;;;;;;5052416;28;20268;-68
2023/08/15 05:32:16;;;;;;;0.80;0.80;;;20.80;99.90;;;;;;5052042;28;20272;-69
2023/08/15 05:34:42;;;;;;;0.70;0.60;;;20.80;99.90;;;;;;5035545;28;20213;-68
2023/08/15 05:37:07;;;;;;;1.60;0.73;;;20.80;99.90;;;;;;5038123;28;20209;-68
2023/08/15 05:39:35;;;;;;;1.38;0.90;;;20.90;99.90;;;;;;5031380;28;20228;-69
2023/08/15 05:42:01;;;;;;;1.00;0.82;;;20.90;99.90;;;;;;5041104;28;20202;-68
2023/08/15 05:44:28;;;;;;;0.90;0.70;;;20.90;99.90;;;;;;5034882;28;20240;-69
2023/08/15 05:46:54;;;;;;;1.10;0.90;;;20.90;99.90;;;;;;5028079;28;20198;-68
2023/08/15 05:49:22;;;;;;;0.98;0.70;;;21.00;99.90;;;;;;5035177;28;20254;-66
2023/08/15 05:51:48;;;;;;;0.80;0.70;;;21.00;99.90;;;;;;5035026;28;20194;-68
2023/08/15 05:54:16;;;;;;;1.00;0.90;;;21.00;99.90;;;;;;5032206;28;20185;-67
2023/08/15 05:56:41;;;;;;;1.10;1.00;;;21.00;99.90;;;;;;5048633;28;20190;-67
2023/08/15 05:59:07;;;;;;;1.25;0.80;;;21.00;99.90;;;;;;5034999;28;20189;-68
2023/08/15 06:01:35;;;;;;;0.70;0.70;;;21.10;99.90;;;;;;5030506;28;20221;-67
2023/08/15 06:04:03;;;;;;;1.08;0.70;;;21.10;99.90;;;;;;5034738;28;20181;-67
2023/08/15 06:06:29;;;;;;;0.98;0.82;;;21.10;99.90;;;;;;5034589;28;20197;-67
2023/08/15 06:08:57;;;;;;;1.20;0.80;;;21.20;99.90;;;;;;5051985;28;20166;-67
2023/08/15 06:11:23;;;;;;;1.15;0.80;;;21.20;99.90;;;;;;5051887;28;20248;-68
2023/08/15 06:13:49;;;;;;;1.00;0.75;;;21.20;99.90;;;;;;5027729;28;20199;-67
2023/08/15 06:16:16;;;;;;;1.13;1.02;;;21.30;99.90;;;;;;5033727;28;20248;-69
2023/08/15 06:18:42;;;;;;;1.00;0.90;;;21.30;99.90;;;;;;5034866;28;20190;-69
2023/08/15 06:21:07;;;;;;;1.10;0.90;;;21.40;99.90;;;;;;5033644;28;20202;-69
2023/08/15 06:23:34;;;;;;;1.40;1.10;;;21.40;99.90;;;;;;5016131;28;20297;-69
2023/08/15 06:26:00;;;;;;;1.10;1.00;;;21.50;99.90;;;;;;5051089;28;20178;-68
2023/08/15 06:28:29;;;;;;;1.00;0.90;;;21.50;99.90;;;;;;5034349;28;20250;-69
2023/08/15 06:30:54;;;;;;;1.00;0.90;;;21.60;99.90;;;;;;5034678;28;20170;-69
2023/08/15 06:33:22;;;;;;;0.80;0.80;;;21.60;99.90;;;;;;5051203;28;20184;-69
2023/08/15 06:35:48;;;;;;;1.42;0.98;;;21.60;99.90;;;;;;5051358;28;20178;-69
2023/08/15 06:38:16;;;;;;;0.80;0.80;;;21.60;99.90;;;;;;5051001;28;20166;-68
2023/08/15 06:40:41;;;;;;;1.42;0.85;;;21.60;99.90;;;;;;5028519;28;20201;-69
2023/08/15 06:43:07;;;;;;;0.80;0.80;;;21.70;99.90;;;;;;5044360;28;20193;-68
2023/08/15 06:45:39;;;;;;;0.88;0.88;;;21.70;99.90;;;;;;5051218;28;20181;-68
2023/08/15 06:48:05;;;;;;;0.90;0.80;;;21.70;99.90;;;;;;5029697;28;20387;-68
2023/08/15 06:50:34;;;;;;;0.75;0.70;;;21.70;99.90;;;;;;5050939;28;20264;-68
2023/08/15 06:53:00;;;;;;;1.00;0.70;;;21.80;99.90;;;;;;5026401;28;20269;-69
2023/08/15 06:55:28;;;;;;;0.82;0.82;;;21.80;99.90;;;;;;5034331;28;20288;-70
2023/08/15 06:57:54;;;;;;;0.95;0.90;;;21.80;99.90;;;;;;5048323;28;20174;-68
2023/08/15 07:00:19;;;;;;;1.35;0.80;;;21.80;99.90;;;;;;5033891;28;20185;-69
2023/08/15 07:02:45;;;;;;;0.80;0.73;;;21.90;99.90;;;;;;5030621;28;20206;-69
2023/08/15 07:05:11;;;;;;;1.42;1.00;;;21.90;99.90;;;;;;5041361;28;20186;-68
2023/08/15 07:07:39;;;;;;;1.02;0.82;;;21.90;99.90;;;;;;5048990;28;20269;-69
2023/08/15 07:10:11;;;;;;;1.00;0.90;;;21.90;99.90;;;;;;5017361;28;20265;-69
2023/08/15 07:12:39;;;;;;;0.80;0.80;;;21.90;99.90;;;;;;5051054;28;20178;-69
2023/08/15 07:15:06;;;;;;;1.00;0.80;;;22.00;99.90;;;;;;5050038;28;20186;-69
2023/08/15 07:17:31;;;;;;;0.90;0.80;;;22.10;99.90;;;;;;5033840;28;20198;-69
2023/08/15 07:20:00;;;;;;;0.90;0.80;;;22.10;99.90;;;;;;5033581;28;20185;-69
2023/08/15 07:22:30;;;;;;;0.82;0.75;;;22.20;99.90;;;;;;5033622;28;20198;-67
2023/08/15 07:25:10;;;;;;;0.68;0.68;;;22.20;99.90;;;;;;5033493;28;20174;-68
2023/08/15 07:27:38;;;;;;;1.05;0.85;;;22.20;99.90;;;;;;5034127;28;20181;-68
2023/08/15 07:30:12;;;;;;;0.68;0.65;;;22.30;99.90;;;;;;5033618;28;20221;-68
2023/08/15 07:32:38;;;;;;;0.52;0.52;;;22.30;99.90;;;;;;5050405;28;20268;-68
2023/08/15 07:35:07;;;;;;;0.80;0.70;;;22.30;99.90;;;;;;5047153;28;20264;-68
2023/08/15 07:37:35;;;;;;;0.80;0.70;;;22.40;99.90;;;;;;5033795;28;20220;-68
2023/08/15 07:40:09;;;;;;;0.70;0.68;;;22.40;99.90;;;;;;5034624;28;20189;-69
2023/08/15 07:42:35;;;;;;;1.13;0.80;;;22.40;99.90;;;;;;5038877;28;20205;-68
2023/08/15 07:45:02;;;;;;;0.80;0.73;;;22.50;99.90;;;;;;5033660;28;20264;-68
2023/08/15 07:47:34;;;;;;;0.80;0.70;;;22.50;99.90;;;;;;5050087;28;20188;-68
2023/08/15 07:50:28;;;;;;;0.98;0.73;;;22.50;99.90;;;;;;5047126;28;20350;-67
2023/08/15 07:52:58;;;;;;;0.80;0.70;;;22.70;99.90;;;;;;5027841;28;20255;-68
2023/08/15 07:55:27;;;;;;;1.02;0.65;;;22.70;99.90;;;;;;5030368;28;20301;-68
2023/08/15 07:57:55;;;;;;;1.23;0.65;;;22.70;99.90;;;;;;5048259;28;20364;-68
2023/08/15 08:00:23;;;;;;;0.90;0.70;;;22.70;99.90;;;;;;5033724;28;20185;-68
2023/08/15 08:02:49;;;;;;;2.25;0.73;;;22.70;99.90;;;;;;5033402;28;20289;-66
2023/08/15 08:05:17;;;;;;;0.73;0.70;;;22.70;99.90;;;;;;5032968;28;20225;-68
2023/08/15 08:07:46;;;;;;;0.60;0.60;;;22.80;99.90;;;;;;5046584;28;20256;-66
2023/08/15 08:10:12;;;;;;;1.35;0.60;;;22.80;99.90;;;;;;5033336;28;20240;-66
2023/08/15 08:12:38;;;;;;;0.65;0.63;;;22.70;99.90;;;;;;5034618;28;20198;-67
2023/08/15 08:15:06;;;;;;;0.80;0.70;;;22.70;99.90;;;;;;5037201;28;20250;-67
2023/08/15 08:17:32;;;;;;;0.80;0.70;;;22.70;99.90;;;;;;5035623;28;20259;-66
2023/08/15 08:20:07;;;;;;;0.85;0.65;;;22.70;99.90;;;;;;5020700;28;20205;-67
2023/08/15 08:22:32;;;;;;;0.80;0.80;;;22.70;99.90;;;;;;5033887;28;20216;-67
2023/08/15 08:25:11;;;;;;;0.70;0.70;;;22.70;99.90;;;;;;5045902;28;20173;-68
2023/08/15 08:27:37;;;;;;;0.90;0.68;;;22.70;99.90;;;;;;5034617;28;20174;-68
2023/08/15 08:30:06;;;;;;;1.05;0.90;;;22.80;99.90;;;;;;5035369;28;20178;-66
2023/08/15 08:32:32;;;;;;;1.00;0.90;;;22.90;99.90;;;;;;5037036;28;20289;-66
2023/08/15 08:34:57;;;;;;;1.10;0.85;;;22.90;99.90;;;;;;5036645;28;20261;-66
2023/08/15 08:37:23;;;;;;;0.90;0.80;;;23.00;99.90;;;;;;5037069;28;20186;-66
2023/08/15 08:39:51;;;;;;;0.80;0.73;;;23.00;99.90;;;;;;5052322;28;20206;-66
2023/08/15 08:42:16;;;;;;;1.85;1.08;;;23.00;99.90;;;;;;5036559;28;20201;-66
2023/08/15 08:44:43;;;;;;;1.00;0.90;;;23.00;99.90;;;;;;5053438;28;20174;-67
2023/08/15 08:47:11;;;;;;;1.10;1.00;;;23.00;99.90;;;;;;5037266;28;20210;-65
2023/08/15 08:49:40;;;;;;;0.90;0.90;;;23.00;99.90;;;;;;5053085;28;20190;-66
2023/08/15 08:52:06;;;;;;;0.93;0.80;;;23.00;99.90;;;;;;5036977;28;20181;-66
2023/08/15 08:54:34;;;;;;;1.30;1.00;;;23.10;99.90;;;;;;5032661;28;20222;-66
2023/08/15 08:57:04;;;;;;;1.02;0.93;;;23.10;99.90;;;;;;5025873;28;20175;-66
2023/08/15 08:59:30;;;;;;;1.40;1.17;;;23.20;99.90;;;;;;5018269;28;20234;-66
2023/08/15 09:01:57;;;;;;;1.10;1.00;;;23.30;99.90;;;;;;5035852;28;20202;-67
2023/08/15 09:04:23;;;;;;;1.10;0.98;;;23.40;99.90;;;;;;5036334;28;20190;-66
2023/08/15 09:06:49;;;;;;;1.10;1.00;;;23.40;99.90;;;;;;5041203;28;20236;-66
2023/08/15 09:09:14;;;;;;;1.00;0.90;;;23.50;99.90;;;;;;5034790;28;20260;-66
2023/08/15 09:11:45;;;;;;;2.03;1.08;;;23.60;99.90;;;;;;5036242;28;20189;-65
2023/08/15 09:14:16;;;;;;;1.85;1.20;;;23.70;99.90;;;;;;5036494;28;20413;-65
2023/08/15 09:16:49;;;;;;;1.63;1.13;;;23.80;99.90;;;;;;5052813;28;20180;-65
2023/08/15 09:19:15;;;;;;;1.13;1.02;;;23.90;99.90;;;;;;5035866;28;20181;-66
2023/08/15 09:21:44;;;;;;;1.83;1.27;;;24.00;99.90;;;;;;5043681;28;20258;-66
2023/08/15 09:24:12;;;;;;;2.85;1.20;;;24.00;99.90;;;;;;5034337;28;20171;-65
2023/08/15 09:26:41;;;;;;;2.92;1.30;;;24.10;99.90;;;;;;5038768;28;20178;-66
2023/08/15 09:29:09;;;;;;;1.80;1.40;;;24.10;99.90;;;;;;5035825;28;20263;-66
2023/08/15 09:31:38;;;;;;;2.28;1.60;;;24.20;99.90;;;;;;5026262;28;20182;-65
2023/08/15 09:34:10;;;;;;;1.92;1.75;;;24.30;99.90;;;;;;5026986;28;20253;-66
2023/08/15 09:36:38;;;;;;;1.83;1.42;;;24.30;99.90;;;;;;5020121;28;20185;-67
2023/08/15 09:39:08;;;;;;;1.70;1.60;;;24.50;99.90;;;;;;5035891;28;20174;-66
2023/08/15 09:41:39;;;;;;;1.85;1.75;;;24.60;99.90;;;;;;5032186;28;20171;-66
2023/08/15 09:44:05;;;;;;;1.80;1.70;;;24.70;99.90;;;;;;5028832;28;20253;-66
2023/08/15 09:46:32;;;;;;;2.13;1.80;;;24.80;99.90;;;;;;5052348;28;20264;-66
2023/08/15 09:48:58;;;;;;;2.63;1.98;;;25.00;99.90;;;;;;5035403;28;20193;-66
2023/08/15 09:51:28;;;;;;;2.08;1.92;;;25.10;99.90;;;;;;5052567;28;20233;-66
2023/08/15 09:53:54;;;;;;;2.30;2.10;;;25.20;99.90;;;;;;5049617;28;20182;-65
2023/08/15 09:56:24;;;;;;;2.55;2.35;;;25.40;99.90;;;;;;5043951;28;20201;-65
2023/08/15 09:58:52;;;;;;;2.50;2.30;;;25.50;99.90;;;;;;5035334;28;20174;-66
2023/08/15 10:01:25;;;;;;;2.63;2.42;;;25.60;99.90;;;;;;5035412;28;20174;-65
2023/08/15 10:03:52;;;;;;;2.80;2.60;;;25.70;99.90;;;;;;5035220;28;20217;-66
2023/08/15 10:06:19;;;;;;;3.60;3.20;;;25.80;99.90;;;;;;5052146;28;20190;-66
2023/08/15 10:08:46;;;;;;;3.38;3.03;;;25.80;99.90;;;;;;5035366;28;20176;-66
2023/08/15 10:11:12;;;;;;;3.05;2.85;;;25.80;99.90;;;;;;5031341;28;20452;-66
2023/08/15 10:13:39;;;;;;;3.10;2.90;;;25.80;99.90;;;;;;5020690;28;20204;-66
2023/08/15 10:16:14;;;;;;;3.35;2.90;;;25.80;99.90;;;;;;5035498;28;20186;-65
2023/08/15 10:18:52;;;;;;;3.28;2.97;;;25.80;99.90;;;;;;5038293;28;20275;-66
2023/08/15 10:21:17;;;;;;;3.20;2.90;;;25.80;99.90;;;;;;5051668;28;20182;-66
2023/08/15 10:23:43;;;;;;;3.10;2.83;;;25.80;99.90;;;;;;5034992;28;20205;-66
2023/08/15 10:26:09;;;;;;;2.85;2.63;;;25.80;99.90;;;;;;5035028;28;20192;-65
2023/08/15 10:28:34;;;;;;;3.88;3.20;;;25.80;99.90;;;;;;5051285;28;20233;-66
2023/08/15 10:31:00;;;;;;;4.10;3.33;;;25.80;99.90;;;;;;5034961;28;20316;-65
2023/08/15 10:33:32;;;;;;;4.78;3.35;;;25.90;99.90;;;;;;5022552;28;20242;-66
2023/08/15 10:35:58;;;;;;;4.20;3.78;;;26.00;99.90;;;;;;5024166;28;20239;-65
2023/08/15 10:38:27;;;;;;;4.18;3.88;;;26.10;99.90;;;;;;5051025;28;20205;-66
2023/08/15 10:41:01;;;;;;;4.53;4.13;;;26.20;99.90;;;;;;5021938;28;20182;-66
2023/08/15 10:43:32;;;;;;;4.07;3.78;;;26.30;99.90;;;;;;5023916;28;20221;-65
2023/08/15 10:46:04;;;;;;;4.65;4.15;;;26.40;99.90;;;;;;5043890;28;20201;-67
2023/08/15 10:48:44;;;;;;;5.03;3.67;;;26.50;99.90;;;;;;5047969;28;20281;-67
2023/08/15 10:51:29;;;;;;;5.35;4.40;;;26.60;99.90;;;;;;5047730;28;20183;-66
2023/08/15 10:53:56;;;;;;;4.13;3.83;;;26.60;99.90;;;;;;5034434;28;20185;-67
2023/08/15 10:56:24;;;;;;;4.63;4.20;;;26.60;99.90;;;;;;5034233;28;20170;-67
2023/08/15 10:58:50;;;;;;;4.63;4.22;;;26.60;99.90;;;;;;5014571;28;20270;-65
2023/08/15 11:01:21;;;;;;;4.65;3.80;;;26.60;99.90;;;;;;5033352;28;20177;-67
2023/08/15 11:03:53;;;;;;;4.38;3.78;;;26.60;99.90;;;;;;5017394;28;20230;-67
2023/08/15 11:06:19;;;;;;;4.50;4.10;;;26.60;99.90;;;;;;5034005;28;20198;-66
2023/08/15 11:09:00;;;;;;;4.40;4.00;;;26.60;99.90;;;;;;5050684;28;20182;-67
2023/08/15 11:11:26;;;;;;;3.83;3.53;;;26.70;99.90;;;;;;5034228;28;20174;-66
2023/08/15 11:13:53;;;;;;;4.47;3.55;;;26.70;99.90;;;;;;5055671;28;20197;-67
2023/08/15 11:16:23;;;;;;;4.22;3.65;;;26.70;99.90;;;;;;5036518;28;20184;-67
2023/08/15 11:18:49;;;;;;;3.75;3.42;;;26.70;99.90;;;;;;5034305;28;20178;-68
2023/08/15 11:21:16;;;;;;;3.88;3.50;;;26.60;99.90;;;;;;5050195;28;20201;-67
2023/08/15 11:23:45;;;;;;;4.00;3.70;;;26.60;99.90;;;;;;5050518;28;20221;-67
2023/08/15 11:26:14;;;;;;;3.40;3.10;;;26.60;99.90;;;;;;5033751;28;20186;-67
2023/08/15 11:28:42;;;;;;;3.63;3.33;;;26.60;99.90;;;;;;5020461;28;20174;-66
2023/08/15 11:31:14;;;;;;;3.97;3.50;;;26.60;99.90;;;;;;5023341;28;20170;-67
2023/08/15 11:33:43;;;;;;;3.55;3.25;;;26.60;99.90;;;;;;5022633;28;20181;-67
2023/08/15 11:36:13;;;;;;;3.50;3.20;;;26.60;99.90;;;;;;5014361;28;20174;-67
2023/08/15 11:38:41;;;;;;;3.60;3.30;;;26.70;99.90;;;;;;5031078;28;20181;-68
2023/08/15 11:41:09;;;;;;;3.35;3.05;;;26.70;99.90;;;;;;5049941;28;20206;-67
2023/08/15 11:43:35;;;;;;;4.05;3.50;;;26.70;99.90;;;;;;5050167;28;20275;-66
2023/08/15 11:46:05;;;;;;;4.28;3.50;;;26.80;99.90;;;;;;5034523;28;20201;-67
2023/08/15 11:48:32;;;;;;;5.03;3.72;;;26.80;99.90;;;;;;5037617;28;20205;-66
2023/08/15 11:50:58;;;;;;;4.20;3.80;;;26.90;99.90;;;;;;5037741;28;20202;-67
2023/08/15 11:53:24;;;;;;;4.40;3.60;;;26.90;99.90;;;;;;5038019;28;20236;-67
2023/08/15 11:55:50;;;;;;;5.00;3.72;;;27.00;99.90;;;;;;5034044;28;20251;-67
2023/08/15 11:58:30;;;;;;;3.80;3.50;;;27.00;99.90;;;;;;5021856;28;20188;-67
2023/08/15 12:01:11;;;;;;;3.47;3.17;;;27.10;99.90;;;;;;5037061;28;20185;-66
2023/08/15 12:03:40;;;;;;;3.42;3.13;;;27.20;99.90;;;;;;5037508;28;20292;-66
2023/08/15 12:06:07;;;;;;;3.78;3.13;;;27.20;99.90;;;;;;5036961;28;20185;-67
2023/08/15 12:08:35;;;;;;;4.03;3.63;;;27.30;99.90;;;;;;5053244;28;20173;-68
2023/08/15 12:11:06;;;;;;;4.43;3.10;;;27.30;99.90;;;;;;5037427;28;20379;-67
2023/08/15 12:13:36;;;;;;;4.43;3.25;;;27.40;99.90;;;;;;5037071;28;20185;-67
2023/08/15 12:16:03;;;;;;;2.75;2.50;;;27.40;99.90;;;;;;5037555;28;20216;-67
2023/08/15 12:18:29;;;;;;;3.55;3.00;;;27.40;99.90;;;;;;5035518;28;20238;-67
2023/08/15 12:20:55;;;;;;;3.40;3.10;;;27.40;99.90;;;;;;5017863;28;20202;-67
2023/08/15 12:23:21;;;;;;;3.58;2.85;;;27.40;99.90;;;;;;5017695;28;20252;-66
2023/08/15 12:25:47;;;;;;;3.05;2.75;;;27.40;99.90;;;;;;5026875;28;20185;-67
2023/08/15 12:28:18;;;;;;;9.18;7.30;;;27.40;99.90;;;;;;5032347;28;20179;-66
2023/08/15 12:30:44;;;;;;;6.47;5.80;;;27.40;99.90;;;;;;5044448;28;20224;-65
2023/08/15 12:33:11;;;;;;;4.68;3.92;;;27.40;99.90;;;;;;5036849;28;20190;-64
2023/08/15 12:35:37;;;;;;;3.83;3.50;;;27.30;99.90;;;;;;5037259;28;20166;-65
2023/08/15 12:38:03;;;;;;;3.47;3.17;;;27.30;99.90;;;;;;5036230;28;20205;-64
2023/08/15 12:40:31;;;;;;;3.55;3.00;;;27.30;99.90;;;;;;5036793;28;20178;-65
2023/08/15 12:42:59;;;;;;;3.13;2.83;;;27.30;99.90;;;;;;5036356;28;20193;-64
2023/08/15 12:45:28;;;;;;;2.63;2.20;;;27.30;99.90;;;;;;5036577;28;20174;-65
2023/08/15 12:47:54;;;;;;;3.55;2.15;;;27.40;99.90;;;;;;5053006;28;20259;-65
2023/08/15 12:50:22;;;;;;;2.90;2.22;;;27.40;99.90;;;;;;5051393;28;20178;-65
2023/08/15 12:52:48;;;;;;;3.03;2.25;;;27.40;99.90;;;;;;5033539;28;20274;-65